• Join FlightAware (Why Join?)
  • Login
  • US Flag 
11:31PM EDT


 

Airport Tracker/Info


-or-


 

Live Flight TrackerFlight Track Log ✈ UAL5822 ✈ 27-Apr-2014 ✈ KAVP - KORD

Flight Track Log - Related Links

Times and Time Zones

All times are in EDT time to prevent confusion due to time zone crossing. See the UAL5822 flight status page for this flight to view local times or setup timezone preferences in your user account.

Time Position Orientation Groundspeed Altitude Reporting Facility
EDT Latitude Longitude Course Direction KTS MPH feet Rate Location/Type
06:02AM 41.4494 -75.6228 339° North 202 232 6,100  Level New York Center
06:03AM 41.6116 -75.9999 292° West  Level FlightAware Approximate
06:03AM 41.4928 -75.6786 316° Northwest 225 259 8,200  Level New York Center
06:04AM 41.6469 -76.1195 297° West  Level FlightAware Approximate
06:04AM 41.5294 -75.7506 304° West 247 284 9,800  Level New York Center
06:05AM 41.6876 -76.2360 287° West  Level FlightAware Approximate
06:05AM 41.5658 -75.8253 303° West 257 296 10,700  Level New York Center
06:06AM 41.4131 -75.7566 339° North  Level FlightAware Approximate
06:06AM 41.6028 -75.9336 295° West 288 331 11,800  Level New York Center
06:07AM 41.4872 -75.8103 339° North  Level FlightAware Approximate
06:07AM 41.6336 -76.0414 291° West 308 354 13,000  Level New York Center
06:08AM 41.6639 -76.1519 290° West 318 366 14,100 1,140 Climbing New York Center
06:09AM 41.6944 -76.2575 291° West 318 366 15,300 1,200 Climbing New York Center
06:10AM 41.7247 -76.3683 290° West 318 366 16,600 1,320 Climbing New York Center
06:11AM 41.7439 -76.4258 294° West 320 368 17,400 1,620 Climbing Cleveland Center
06:12AM 41.7722 -76.5322 290° West 311 358 19,200 1,800 Climbing Cleveland Center
06:13AM 41.8000 -76.6322 290° West 292 336 21,100 1,860 Climbing Cleveland Center
06:14AM 41.8258 -76.7247 291° West 271 312 23,000 1,380 Climbing Cleveland Center
06:15AM 41.8503 -76.8158 290° West 265 305 23,900 840 Climbing Cleveland Center
06:16AM 41.8778 -76.9125 291° West 272 313 24,700 780 Climbing Cleveland Center
06:17AM 41.9047 -77.0131 290° West 281 323 25,500 840 Climbing Cleveland Center
06:18AM 41.9314 -77.1169 289° West 289 333 26,500 960 Climbing Cleveland Center
06:19AM 41.9597 -77.2178 291° West 290 334 27,500 960 Climbing Cleveland Center
06:20AM 41.9858 -77.3167 290° West 287 330 28,500 1,020 Climbing Cleveland Center
06:21AM 42.0117 -77.4117 290° West 274 315 29,600 1,080 Climbing Cleveland Center
06:22AM 42.0472 -77.4953 300° West 259 298 30,700 1,140 Climbing Cleveland Center
06:23AM 42.0975 -77.5869 306° West 258 297 32,000 1,140 Climbing Cleveland Center
06:24AM 42.1383 -77.6633 306° West 255 293 33,000 900 Climbing Cleveland Center
06:25AM 42.1786 -77.7414 305° West 253 291 33,900 780 Climbing Cleveland Center
06:26AM 42.1992 -77.8350 287° West 262 302 34,600 600 Climbing Cleveland Center
06:27AM 42.2178 -77.9331 284° West 266 306 35,200 540 Climbing Cleveland Center
06:28AM 42.2369 -78.0325 285° West 269 310 35,700 360 Climbing Cleveland Center
06:29AM 42.2561 -78.1347 284° West 276 318 36,000 120 Climbing Cleveland Center
06:30AM 42.2758 -78.2428 284° West 293 337 36,000  Level Cleveland Center
06:31AM 42.2972 -78.3575 284° West 309 356 36,000  Level Cleveland Center
06:32AM 42.3189 -78.4767 284° West 319 367 36,000  Level Cleveland Center
06:33AM 42.3428 -78.6028 284° West 340 391 36,000  Level Cleveland Center
06:34AM 42.3656 -78.7322 283° West 347 399 36,000  Level Cleveland Center
06:35AM 42.3900 -78.8667 284° West 361 415 36,000  Level Cleveland Center
06:36AM 42.4050 -79.0011 279° West 368 423 36,000  Level Cleveland Center
06:37AM 42.4150 -79.1331 276° West 361 415 36,000  Level Cleveland Center
06:38AM 42.4231 -79.2661 275° West 359 413 36,000  Level Cleveland Center
06:39AM 42.4311 -79.3992 275° West 359 413 36,000  Level Cleveland Center
06:40AM 42.4394 -79.5322 275° West 359 413 36,000  Level Cleveland Center
06:41AM 42.4483 -79.6689 275° West 363 418 36,000  Level Cleveland Center
06:42AM 42.4564 -79.8064 275° West 368 423 36,000  Level Cleveland Center
06:43AM 42.4644 -79.9519 274° West 369 425 36,000  Level Cleveland Center
06:44AM 42.4711 -80.0914 274° West 367 422 36,000  Level Cleveland Center
06:45AM 42.4792 -80.2250 275° West 357 411 36,000  Level Cleveland Center
06:46AM 42.4858 -80.3569 274° West 353 406 36,000  Level Cleveland Center
06:47AM 42.4936 -80.4883 275° West 347 399 36,000  Level Cleveland Center
06:48AM 42.5011 -80.6181 275° West 346 398 36,000  Level Cleveland Center
06:49AM 42.5067 -80.7492 273° West 346 398 36,000  Level Cleveland Center
06:50AM 42.5108 -80.8781 273° West 345 397 36,000  Level Cleveland Center
06:51AM 42.5147 -81.0039 272° West 334 384 36,000  Level Cleveland Center
06:52AM 42.5183 -81.1314 272° West 335 386 36,000  Level Cleveland Center
06:53AM 42.5231 -81.2778 273° West 333 383 36,000  Level Cleveland Center
06:54AM 42.5369 -81.4011 279° West 331 381 36,000  Level Cleveland Center
06:55AM 42.5517 -81.5244 279° West 330 380 36,000  Level Cleveland Center
06:56AM 42.5650 -81.6478 278° West 330 380 36,000  Level Cleveland Center
06:57AM 42.5783 -81.7706 278° West 329 379 36,000  Level Cleveland Center
06:58AM 42.5914 -81.8814 279° West 332 382 36,000  Level Cleveland Center
06:59AM 42.6053 -82.0072 279° West 336 387 36,000  Level Cleveland Center
07:00AM 42.6183 -82.1344 278° West 341 392 36,000  Level Cleveland Center
07:01AM 42.6331 -82.2636 279° West 346 398 36,000  Level Cleveland Center
07:02AM 42.6486 -82.4153 278° West 340 391 36,000  Level Cleveland Center
07:03AM 42.6617 -82.5419 278° West 340 391 36,000  Level Cleveland Center
07:04AM 42.6744 -82.6686 278° West 341 392 36,000  Level Cleveland Center
07:05AM 42.7139 -82.7819 295° West 338 389 36,000  Level Cleveland Center
07:06AM 42.7569 -82.8928 298° West 334 384 36,000  Level Cleveland Center
07:07AM 42.8003 -83.0044 298° West 335 386 36,000 -120 Level Cleveland Center
07:08AM 42.8442 -83.1150 298° West 335 386 35,800 -960 Descending Cleveland Center
07:09AM 42.8897 -83.2303 298° West 344 396 34,100 -900 Descending Cleveland Center
07:10AM 42.9342 -83.3464 298° West 347 399 34,000 -60 Descending Cleveland Center
07:11AM 42.9583 -83.4744 285° West 356 410 34,000 -840 Level Cleveland Center
07:12AM 42.9475 -83.6375 265° West 362 417 32,400 -1,020 Descending Cleveland Center
07:13AM 42.9386 -83.7792 265° West 373 429 32,000 -240 Descending Cleveland Center
07:14AM 42.9289 -83.9203 265° West 376 433 32,000  Level Cleveland Center
07:15AM 42.9192 -84.0633 265° West 377 434 32,000  Level Cleveland Center
07:16AM 42.9106 -84.2050 265° West 378 435 32,000  Level Cleveland Center
07:17AM 42.9003 -84.3428 264° West 378 435 32,000  Level Cleveland Center
07:18AM 42.8906 -84.4853 265° West 378 435 32,000  Level Cleveland Center
07:19AM 42.8789 -84.6283 264° West 379 436 32,000  Level Cleveland Center
07:20AM 42.8644 -84.7711 262° West 380 437 32,000  Level Cleveland Center
07:21AM 42.8494 -84.9161 262° West 382 440 32,000  Level Cleveland Center
07:22AM 42.8303 -85.0875 261° West 383 441 32,000  Level Cleveland Center
07:23AM 42.8150 -85.2333 262° West 386 444 32,000  Level Cleveland Center
07:24AM 42.7989 -85.3783 261° West 386 444 32,000 -840 Level Cleveland Center
07:25AM 42.7822 -85.5233 261° West 387 445 30,400 -1,860 Descending Chicago Center
07:26AM 42.7550 -85.6708 256° West 393 452 28,200 -2,220 Descending Chicago Center
07:27AM 42.7286 -85.8183 256° West 397 457 25,900 -2,280 Descending Chicago Center
07:29AM 42.7017 -85.9631 256° West 397 457 23,700 -2,220 Descending Chicago Center
07:30AM 42.6764 -86.1044 256° West 389 448 21,500 -1,860 Descending Chicago Center
07:31AM 42.6519 -86.2364 256° West 370 426 20,000 -780 Descending Chicago Center
07:32AM 42.6269 -86.3653 255° West 354 407 20,000  Level Chicago Center
07:33AM 42.6017 -86.4986 256° West 358 412 20,000 -1,080 Level Chicago Center
07:34AM 42.5767 -86.6308 256° West 360 414 17,900 -2,100 Descending Chicago Center
07:35AM 42.5528 -86.7606 256° West 360 414 15,800 -2,160 Descending Chicago Center
07:36AM 42.5189 -86.8797 249° West 344 396 13,600 -2,040 Descending Chicago Center
07:37AM 42.4886 -86.9931 250° West 325 374 11,700 -1,320 Descending Chicago Center
07:38AM 42.4569 -87.1028 249° West 312 359 11,000 -360 Descending Chicago Center
07:39AM 42.4247 -87.2189 249° West 328 377 11,000  Level Chicago Center
07:40AM 42.3936 -87.3319 250° West 324 373 11,000  Level Chicago Center
07:41AM 42.3600 -87.4581 250° West 324 373 11,000  Level Chicago Center
07:42AM 42.3017 -87.5742 236° Southwest 343 395 11,000  Level Chicago Center
07:43AM 42.2275 -87.6519 218° Southwest 338 389 11,000 -120 Level Chicago Center
07:44AM 42.1586 -87.7250 218° Southwest 312 359 10,800 -900 Descending Chicago Center
07:45AM 42.1036 -87.7853 219° Southwest 262 302 9,200 -1,680 Descending Chicago Center
07:46AM 42.0794 -87.8686 249° West 244 281 7,500 -1,140 Descending Chicago Center
07:47AM 42.0644 -87.9633 258° West 246 283 7,000 -720 Descending Chicago Center
07:48AM 42.0619 -88.0428 268° West 216 249 6,100 -1,260 Descending Chicago Center
07:49AM 42.0589 -88.1211 267° West 210 242 4,500 -1,380 Descending Chicago Center
07:50AM 42.0275 -88.1647 226° Southwest 189 217 3,300 -780 Descending Chicago Center
07:51AM 41.9961 -88.1322 142° Southeast 166 191 3,000 -180 Descending Chicago Center
07:52AM 41.9831 -88.0739 107° East 158 182 3,000 -360 Level Chicago Center
07:53AM 41.9831 -88.0167 90° East 155 178 2,300 -720 Descending Chicago Center
07:54AM 41.9831 -87.9767 90° East 112 129 1,600 -660 Descending Chicago Center
07:55AM 41.9831 -87.9342 90° East 110 127 1,000 -360 Descending Chicago Center
07:56AM 41.9836 -87.8978 89° East 110 127 900 -120 Descending Chicago Center